Terminal Aerodrome Forecast
Issued by NWS Shreveport, LA

Home | Current Version | Previous Version | Text Only | Print | Product List | Glossary On
Versions: 1 2 3 4 5 6 7 8 9 10 11 12 13 14 15 16 17 18 19 20 21 22
053
FTUS44 KSHV 201759
TAFELD
TAF
KELD 201759Z 2018/2118 17015G25KT P6SM SCT035 BKN045 OVC060
     FM202100 18015G25KT P6SM SCT040 BKN050 OVC060
     FM210000 18010KT P6SM OVC040
     FM210600 19009KT P6SM VCSH BKN015 OVC025
     FM210900 20008KT 6SM -SHRA OVC015
     FM211200 34010KT 5SM -SHRA VCTS BKN007 OVC015CB=

USA.gov is the U.S. government's official web portal to all federal, state and local government web resources and services.